createdAt,value
2022-09-18T00:00:35.716Z,9.67
2022-09-18T00:05:38.239Z,9.74
2022-09-18T00:10:46.584Z,9.71
2022-09-18T00:15:57.874Z,9.67
2022-09-18T00:21:11.835Z,9.61
2022-09-18T00:26:16.216Z,9.61
2022-09-18T00:31:21.427Z,9.55
2022-09-18T00:36:23.678Z,9.54
2022-09-18T00:41:28.891Z,9.43
2022-09-18T00:46:34.928Z,9.31
2022-09-18T00:51:39.300Z,9.34
2022-09-18T00:56:41.675Z,9.19
2022-09-18T01:01:43.493Z,9.18
2022-09-18T01:07:06.736Z,9.19
2022-09-18T01:12:19.397Z,9.23
2022-09-18T01:17:44.624Z,9.30
2022-09-18T01:23:31.499Z,9.40
2022-09-18T01:28:42.250Z,9.41
2022-09-18T01:34:04.999Z,9.45
2022-09-18T01:39:17.245Z,9.50
2022-09-18T01:44:24.469Z,9.50
2022-09-18T01:49:29.480Z,9.51
2022-09-18T01:54:35.448Z,9.56
2022-09-18T01:59:46.183Z,9.59
2022-09-18T02:04:52.594Z,9.69
2022-09-18T02:09:56.374Z,9.66
2022-09-18T02:15:02.967Z,9.66
2022-09-18T02:20:25.378Z,9.72
2022-09-18T02:25:33.625Z,9.79
2022-09-18T02:30:38.792Z,9.79
2022-09-18T02:35:47.459Z,9.83
2022-09-18T02:41:07.410Z,9.80
2022-09-18T02:46:19.248Z,9.81
2022-09-18T02:51:45.754Z,9.77
2022-09-18T02:56:56.156Z,9.74
2022-09-18T03:01:59.561Z,9.66
2022-09-18T03:07:03.681Z,9.68
2022-09-18T03:12:09.399Z,9.60
2022-09-18T03:17:14.629Z,9.58
2022-09-18T03:22:19.148Z,9.58
2022-09-18T03:27:21.198Z,9.62
2022-09-18T03:32:23.963Z,9.61
2022-09-18T03:37:27.063Z,9.63
2022-09-18T03:42:29.684Z,9.67
2022-09-18T03:47:36.684Z,9.61
2022-09-18T03:52:39.601Z,9.60
2022-09-18T03:57:57.321Z,9.63
2022-09-18T04:03:19.315Z,9.59
2022-09-18T04:08:39.882Z,9.62
2022-09-18T04:13:49.531Z,9.63
2022-09-18T04:18:52.506Z,9.60
2022-09-18T04:23:56.349Z,9.60
2022-09-18T04:28:58.203Z,9.62
2022-09-18T04:34:00.267Z,9.57
2022-09-18T04:39:02.109Z,9.59
2022-09-18T04:44:04.481Z,9.59
2022-09-18T04:49:06.445Z,9.61
2022-09-18T04:54:09.677Z,9.60
2022-09-18T04:59:12.723Z,9.60
2022-09-18T05:04:18.947Z,9.63
2022-09-18T05:09:40.413Z,9.57
2022-09-18T05:14:44.051Z,9.63
2022-09-18T05:19:49.482Z,9.58
2022-09-18T05:24:58.359Z,9.64
2022-09-18T05:30:00.030Z,9.67
2022-09-18T05:35:17.696Z,9.69
2022-09-18T05:40:27.425Z,9.72
2022-09-18T05:45:29.628Z,9.74
2022-09-18T05:50:34.311Z,9.80
2022-09-18T05:55:39.884Z,9.82
2022-09-18T06:00:44.627Z,9.89
2022-09-18T06:05:54.465Z,9.94
2022-09-18T06:11:01.515Z,9.96
2022-09-18T06:16:05.746Z,10.03
2022-09-18T06:21:24.010Z,10.10
2022-09-18T06:26:25.783Z,10.04
2022-09-18T06:31:27.588Z,10.03
2022-09-18T06:36:44.319Z,10.10
2022-09-18T06:42:12.217Z,10.12
2022-09-18T06:47:33.042Z,10.20
2022-09-18T06:52:36.214Z,10.17
2022-09-18T06:57:40.611Z,10.24
2022-09-18T07:02:46.831Z,10.26
2022-09-18T07:08:07.333Z,10.29
2022-09-18T07:13:11.762Z,10.38
2022-09-18T07:18:21.272Z,10.30
2022-09-18T07:23:24.248Z,10.33
2022-09-18T07:28:29.402Z,10.43
2022-09-18T07:33:40.494Z,10.39
2022-09-18T07:38:43.697Z,10.45
2022-09-18T07:43:51.143Z,10.46
2022-09-18T07:48:53.315Z,10.52
2022-09-18T07:59:39.830Z,10.60
2022-09-18T08:04:41.610Z,10.63
2022-09-18T08:09:52.602Z,10.66
2022-09-18T08:15:08.830Z,10.75
2022-09-18T08:20:24.070Z,10.78
2022-09-18T08:25:28.768Z,10.75
2022-09-18T08:30:31.754Z,10.75
2022-09-18T08:35:37.367Z,10.65
2022-09-18T08:41:16.385Z,10.64
2022-09-18T08:46:29.758Z,10.60
2022-09-18T08:52:04.256Z,10.62
2022-09-18T08:57:16.459Z,10.65
2022-09-18T09:02:42.353Z,10.63
2022-09-18T09:07:51.842Z,10.66
2022-09-18T09:13:31.236Z,10.75
2022-09-18T09:18:57.296Z,10.80
2022-09-18T09:24:17.258Z,10.87
2022-09-18T09:29:44.143Z,10.98
2022-09-18T09:35:42.757Z,11.10
2022-09-18T09:40:52.637Z,11.11
2022-09-18T09:46:00.075Z,11.30
2022-09-18T09:51:38.494Z,11.38
2022-09-18T09:56:51.211Z,11.43
2022-09-18T10:02:09.904Z,11.40
2022-09-18T10:07:17.508Z,11.52
2022-09-18T10:12:36.466Z,11.67
2022-09-18T10:17:41.386Z,11.74
2022-09-18T10:22:46.734Z,11.87
2022-09-18T10:27:50.016Z,11.91
2022-09-18T10:32:52.978Z,12.20
2022-09-18T10:38:01.656Z,12.18
2022-09-18T10:43:07.769Z,12.15
2022-09-18T10:48:25.086Z,12.19
2022-09-18T10:53:32.736Z,12.25
2022-09-18T10:58:43.216Z,12.23
2022-09-18T11:03:47.676Z,12.31
2022-09-18T11:09:01.254Z,12.41
2022-09-18T11:14:08.374Z,12.51
2022-09-18T11:19:38.982Z,12.30
2022-09-18T11:24:48.990Z,12.21
2022-09-18T11:29:51.834Z,12.16
2022-09-18T11:34:57.766Z,12.19
2022-09-18T11:40:25.280Z,12.12
2022-09-18T11:45:52.990Z,12.21
2022-09-18T11:51:02.179Z,12.19
2022-09-18T11:56:16.008Z,12.27
2022-09-18T12:01:41.978Z,12.42
2022-09-18T12:06:53.653Z,12.41
2022-09-18T12:12:18.559Z,12.59
2022-09-18T12:17:29.266Z,12.66
2022-09-18T12:22:44.673Z,12.62
2022-09-18T12:27:58.625Z,12.57
2022-09-18T12:33:23.320Z,12.58
2022-09-18T12:38:27.897Z,12.64
2022-09-18T12:43:47.181Z,12.83
2022-09-18T12:48:58.130Z,12.98
2022-09-18T12:54:21.699Z,13.11
2022-09-18T12:59:39.690Z,13.15
2022-09-18T13:04:49.913Z,13.19
2022-09-18T13:10:12.248Z,13.12
2022-09-18T13:15:19.939Z,13.02
2022-09-18T13:20:33.100Z,12.99
2022-09-18T13:25:38.727Z,13.07
2022-09-18T13:30:41.234Z,13.15
2022-09-18T13:35:54.678Z,13.31
2022-09-18T13:41:08.912Z,13.40
2022-09-18T13:46:31.723Z,13.36
2022-09-18T13:51:36.181Z,13.39
2022-09-18T13:57:15.066Z,13.42
2022-09-18T14:02:35.473Z,13.42
2022-09-18T14:07:37.060Z,13.48
2022-09-18T14:12:38.802Z,13.56
2022-09-18T14:17:41.234Z,13.63
2022-09-18T14:22:42.950Z,13.66
2022-09-18T14:27:59.623Z,13.66
2022-09-18T14:33:04.230Z,13.61
2022-09-18T14:38:36.796Z,13.59
2022-09-18T14:43:40.162Z,13.67
2022-09-18T14:48:41.954Z,13.69
2022-09-18T14:53:46.742Z,13.70
2022-09-18T14:58:50.599Z,13.71
2022-09-18T15:03:54.508Z,13.71
2022-09-18T15:08:57.796Z,13.61
2022-09-18T15:14:00.022Z,13.54
2022-09-18T15:19:02.032Z,13.53
2022-09-18T15:24:05.063Z,13.49
2022-09-18T15:29:18.504Z,13.47
2022-09-18T15:34:20.087Z,13.41
2022-09-18T15:39:42.483Z,13.35
2022-09-18T15:44:50.225Z,13.30
2022-09-18T15:49:52.856Z,13.26
2022-09-18T15:55:09.916Z,13.21
2022-09-18T16:00:21.191Z,13.24
2022-09-18T16:05:23.054Z,13.22
2022-09-18T16:10:33.413Z,13.21
2022-09-18T16:15:35.616Z,13.17
2022-09-18T16:21:01.588Z,13.14
2022-09-18T16:26:20.248Z,13.08
2022-09-18T16:31:25.266Z,13.03
2022-09-18T16:36:32.819Z,12.98
2022-09-18T16:41:35.383Z,13.04
2022-09-18T16:47:02.101Z,12.96
2022-09-18T16:52:04.658Z,12.96
2022-09-18T16:57:12.953Z,12.97
2022-09-18T17:02:18.074Z,12.93
2022-09-18T17:07:19.744Z,12.89
2022-09-18T17:12:21.538Z,12.85
2022-09-18T17:17:23.654Z,12.82
2022-09-18T17:22:25.356Z,12.81
2022-09-18T17:27:27.356Z,12.79
2022-09-18T17:32:29.702Z,12.81
2022-09-18T17:37:31.453Z,12.76
2022-09-18T17:42:33.493Z,12.80
2022-09-18T17:47:35.240Z,12.79
2022-09-18T17:52:36.932Z,12.75
2022-09-18T17:57:39.331Z,12.73
2022-09-18T18:02:41.060Z,12.73
2022-09-18T18:07:42.800Z,12.71
2022-09-18T18:12:45.372Z,12.72
2022-09-18T18:17:48.601Z,12.70
2022-09-18T18:22:50.281Z,12.69
2022-09-18T18:27:54.013Z,12.68
2022-09-18T18:32:56.207Z,12.60
2022-09-18T18:37:58.928Z,12.52
2022-09-18T18:43:00.698Z,12.47
2022-09-18T18:48:02.942Z,12.45
2022-09-18T18:53:04.670Z,12.41
2022-09-18T18:58:06.336Z,12.35
2022-09-18T19:03:08.193Z,12.24
2022-09-18T19:08:10.003Z,12.16
2022-09-18T19:13:12.350Z,12.12
2022-09-18T19:18:14.066Z,12.05
2022-09-18T19:23:16.790Z,11.99
2022-09-18T19:28:19.069Z,11.89
2022-09-18T19:33:22.937Z,11.89
2022-09-18T19:38:25.073Z,11.85
2022-09-18T19:43:30.988Z,11.84
2022-09-18T19:48:33.621Z,11.92
2022-09-18T19:53:35.482Z,11.88
2022-09-18T19:58:38.978Z,11.87
2022-09-18T20:03:42.202Z,11.88
2022-09-18T20:08:43.768Z,11.84
2022-09-18T20:13:50.409Z,11.71
2022-09-18T20:18:52.398Z,11.72
2022-09-18T20:23:58.296Z,11.69
2022-09-18T20:29:00.629Z,11.64
2022-09-18T20:34:02.685Z,11.64
2022-09-18T20:39:04.703Z,11.60
2022-09-18T20:44:06.429Z,11.55
2022-09-18T20:49:08.198Z,11.48
2022-09-18T20:54:13.966Z,11.42
2022-09-18T20:59:18.125Z,11.31
2022-09-18T21:04:20.612Z,11.30
2022-09-18T21:09:24.703Z,11.20
2022-09-18T21:14:27.247Z,11.06
2022-09-18T21:19:29.424Z,10.99
2022-09-18T21:24:32.260Z,10.94
2022-09-18T21:29:33.914Z,10.93
2022-09-18T21:34:35.800Z,10.87
2022-09-18T21:39:37.893Z,10.84
2022-09-18T21:44:39.609Z,10.85
2022-09-18T21:49:41.524Z,10.84
2022-09-18T21:54:43.155Z,10.81
2022-09-18T21:59:44.797Z,10.80
2022-09-18T22:04:46.493Z,10.73
2022-09-18T22:09:50.416Z,10.67
2022-09-18T22:14:52.048Z,10.61
2022-09-18T22:19:53.671Z,10.51
2022-09-18T22:24:57.728Z,10.43
2022-09-18T22:29:59.705Z,10.42
2022-09-18T22:35:01.324Z,10.33
2022-09-18T22:40:03.302Z,10.31
2022-09-18T22:45:05.613Z,10.36
2022-09-18T22:50:07.774Z,10.40
2022-09-18T22:55:09.427Z,10.39
2022-09-18T23:00:16.321Z,10.32
2022-09-18T23:05:18.219Z,10.29
2022-09-18T23:10:20.895Z,10.26
2022-09-18T23:15:22.527Z,10.22
2022-09-18T23:20:24.181Z,10.18
2022-09-18T23:25:25.772Z,10.12
2022-09-18T23:30:28.057Z,10.12
2022-09-18T23:35:29.726Z,10.16
2022-09-18T23:40:31.823Z,10.11
2022-09-18T23:45:34.682Z,9.95
2022-09-18T23:50:36.325Z,9.65
2022-09-18T23:55:37.987Z,9.28
